Time;durP1;ratioP1;P1;durP2;ratioP2;P2;SDS_P1;SDS_P2;PMS_P1;PMS_P2;Temp;Humidity;BMP_temperature;BMP_pressure;BME280_temperature;BME280_humidity;BME280_pressure;Samples;Min_cycle;Max_cycle;Signal;HPM_P1;HPM_P2
2021/09/13 00:01:02;;;;;;;;;0.00;0.00;;;;;18.57;54.58;101411.13;5100329;27;45434;-81
2021/09/13 00:03:27;;;;;;;;;0.00;0.00;;;;;18.17;54.54;101335.22;5098878;27;47355;-79
2021/09/13 00:05:52;;;;;;;;;0.00;0.00;;;;;18.57;54.54;101410.25;5121463;27;45257;-79
2021/09/13 00:08:18;;;;;;;;;0.00;0.00;;;;;18.63;54.19;101404.88;5114606;27;45406;-80
2021/09/13 00:10:45;;;;;;;;;0.00;0.00;;;;;18.42;54.58;101366.50;5116840;27;45276;-80
2021/09/13 00:13:11;;;;;;;;;0.00;0.00;;;;;18.65;54.19;101405.72;5115474;27;46121;-81
2021/09/13 00:15:36;;;;;;;;;0.00;0.00;;;;;18.41;54.31;101357.72;5118905;27;45427;-80
2021/09/13 00:18:02;;;;;;;;;0.00;0.00;;;;;18.65;54.43;101405.72;5113918;27;45348;-81
2021/09/13 00:20:27;;;;;;;;;0.00;0.00;;;;;18.33;54.76;101356.97;5114725;27;45781;-77
2021/09/13 00:22:53;;;;;;;;;0.00;0.00;;;;;18.38;54.50;101367.44;5106820;27;45652;-78
2021/09/13 00:25:18;;;;;;;;;0.00;0.00;;;;;18.57;54.68;101397.94;5086908;27;46012;-79
2021/09/13 00:27:43;;;;;;;;;0.00;0.00;;;;;18.49;54.53;101389.25;5103317;27;45760;-78
2021/09/13 00:30:09;;;;;;;;;0.00;0.00;;;;;18.33;54.69;101362.25;5103015;27;45269;-79
2021/09/13 00:32:34;;;;;;;;;0.00;0.00;;;;;18.41;55.09;101380.59;5103601;27;45306;-79
2021/09/13 00:35:00;;;;;;;;;0.00;0.00;;;;;18.38;54.52;101370.09;5103362;27;45251;-79
2021/09/13 00:37:25;;;;;;;;;0.00;0.00;;;;;18.44;54.94;101381.41;5103550;27;45262;-79
2021/09/13 00:39:50;;;;;;;;;2.00;2.00;;;;;18.34;54.85;101372.75;5103501;27;45500;-79
2021/09/13 00:42:16;;;;;;;;;1.25;1.00;;;;;18.27;55.32;101367.59;5102755;27;45461;-80
2021/09/13 00:44:41;;;;;;;;;4.00;4.00;;;;;17.92;55.16;101317.94;5103316;27;45331;-80
2021/09/13 00:47:07;;;;;;;;;3.00;1.00;;;;;18.10;55.08;101340.59;5100087;27;45496;-80
2021/09/13 00:49:32;;;;;;;;;2.25;1.75;;;;;17.97;55.16;101316.13;5103772;27;45409;-80
2021/09/13 00:51:58;;;;;;;;;5.00;2.00;;;;;17.95;54.62;101312.63;5103685;27;46202;-79
2021/09/13 00:54:23;;;;;;;;;0.00;0.00;;;;;18.11;54.95;101344.09;5104078;27;45483;-80
2021/09/13 00:56:49;;;;;;;;;0.00;0.00;;;;;18.18;55.19;101361.56;5087706;27;45508;-79
2021/09/13 00:59:15;;;;;;;;;0.00;0.00;;;;;18.19;55.24;101370.34;5085396;27;45343;-80
2021/09/13 01:01:41;;;;;;;;;0.25;0.00;;;;;17.97;55.40;101328.44;5104179;27;45483;-80
2021/09/13 01:04:06;;;;;;;;;0.75;0.75;;;;;18.16;55.18;101371.25;5102408;27;45292;-79
2021/09/13 01:06:32;;;;;;;;;0.00;0.00;;;;;18.16;55.31;101363.34;5102364;27;45492;-79
2021/09/13 01:08:57;;;;;;;;;0.00;0.00;;;;;18.00;55.01;101335.44;5103830;27;45309;-79
2021/09/13 01:11:23;;;;;;;;;0.00;0.00;;;;;17.93;55.21;101327.59;5083760;27;47095;-79
2021/09/13 01:13:48;;;;;;;;;0.00;0.00;;;;;18.13;55.08;101376.53;5084761;27;45446;-78
2021/09/13 01:16:14;;;;;;;;;1.00;0.00;;;;;18.08;55.11;101376.59;5084761;27;45290;-79
2021/09/13 01:18:40;;;;;;;;;1.00;1.00;;;;;18.05;55.43;101378.38;5083736;27;45269;-79
2021/09/13 01:21:06;;;;;;;;;0.00;0.00;;;;;17.88;55.60;101350.47;5102099;27;45415;-80
2021/09/13 01:23:33;;;;;;;;;0.00;0.00;;;;;18.02;55.20;101381.06;5102551;27;45222;-79
2021/09/13 01:25:59;;;;;;;;;0.00;0.00;;;;;17.81;55.50;101333.91;5105498;27;45504;-79
2021/09/13 01:28:25;;;;;;;;;0.00;0.00;;;;;18.02;55.48;101366.13;5109320;27;45289;-79
2021/09/13 01:30:52;;;;;;;;;0.00;0.00;;;;;17.76;55.68;101324.31;5110268;27;45476;-79
2021/09/13 01:33:18;;;;;;;;;0.00;0.00;;;;;18.07;55.19;101374.84;5111623;27;45410;-79
2021/09/13 01:35:43;;;;;;;;;0.00;0.00;;;;;17.93;55.31;101350.44;5110992;27;45376;-79
2021/09/13 01:38:09;;;;;;;;;0.00;0.00;;;;;17.67;55.70;101305.09;5111795;27;45260;-80
2021/09/13 01:40:34;;;;;;;;;0.00;0.00;;;;;17.96;55.42;101351.28;5090538;27;47198;-79
2021/09/13 01:43:01;;;;;;;;;0.00;0.00;;;;;18.00;55.78;101346.81;5108971;27;45350;-79
2021/09/13 01:45:27;;;;;;;;;0.00;0.00;;;;;17.92;55.72;101336.38;5110361;27;45420;-78
2021/09/13 01:47:53;;;;;;;;;0.25;0.00;;;;;17.96;55.67;101358.31;5113245;27;45404;-78
2021/09/13 01:50:19;;;;;;;;;0.00;0.00;;;;;17.51;55.76;101287.72;5109656;27;45442;-78
2021/09/13 01:52:44;;;;;;;;;0.00;0.00;;;;;17.77;56.17;101342.72;5108958;27;45313;-78
2021/09/13 01:55:09;;;;;;;;;0.00;0.00;;;;;17.66;56.33;101337.59;5089778;27;45295;-77
2021/09/13 01:57:35;;;;;;;;;1.00;1.00;;;;;17.65;56.52;101343.75;5090651;27;45497;-79
2021/09/13 02:00:00;;;;;;;;;0.00;0.00;;;;;17.77;56.19;101373.44;5090494;27;48053;-78
2021/09/13 02:02:26;;;;;;;;;0.50;0.00;;;;;17.76;56.26;101366.44;5089563;27;45353;-78
2021/09/13 02:04:51;;;;;;;;;0.00;0.00;;;;;17.65;56.78;101343.75;5090087;27;45438;-78
2021/09/13 02:07:17;;;;;;;;;0.00;0.00;;;;;17.55;56.57;101331.56;5108761;27;45592;-78
2021/09/13 02:09:44;;;;;;;;;0.00;0.00;;;;;17.34;56.56;101313.34;5108868;27;46830;-78
2021/09/13 02:12:09;;;;;;;;;0.00;0.00;;;;;17.54;56.68;101359.66;5088813;27;45405;-79
2021/09/13 02:14:34;;;;;;;;;0.00;0.00;;;;;17.23;57.16;101312.59;5107799;27;45508;-78
2021/09/13 02:17:00;;;;;;;;;0.00;0.00;;;;;17.32;57.11;101335.31;5107336;27;45279;-79
2021/09/13 02:19:25;;;;;;;;;0.00;0.00;;;;;17.17;57.37;101320.53;5089765;27;47264;-78
2021/09/13 02:21:51;;;;;;;;;0.00;0.00;;;;;17.20;57.85;101337.19;5108702;27;45329;-80
2021/09/13 02:24:16;;;;;;;;;0.00;0.00;;;;;17.03;58.22;101312.75;5092007;27;45414;-79
2021/09/13 02:26:41;;;;;;;;;0.00;0.00;;;;;17.16;57.67;101340.75;5109186;27;45330;-79
2021/09/13 02:29:07;;;;;;;;;0.00;0.00;;;;;17.28;57.87;101365.19;5091185;27;47166;-79
2021/09/13 02:31:32;;;;;;;;;1.00;0.00;;;;;16.90;58.07;101302.34;5108135;27;46446;-80
2021/09/13 02:33:57;;;;;;;;;0.00;0.00;;;;;16.96;58.19;101322.44;5107525;27;45604;-79
2021/09/13 02:36:23;;;;;;;;;0.00;0.00;;;;;17.07;58.82;101346.06;5110369;27;45275;-79
2021/09/13 02:38:48;;;;;;;;;0.00;0.00;;;;;17.03;58.69;101360.97;5104772;27;45686;-79
2021/09/13 02:41:13;;;;;;;;;0.00;0.00;;;;;16.94;58.96;101358.44;5104361;27;45784;-80
2021/09/13 02:43:39;;;;;;;;;0.00;0.00;;;;;16.55;58.81;101299.13;5108146;27;45357;-79
2021/09/13 02:46:04;;;;;;;;;0.00;0.00;;;;;16.63;59.32;101317.44;5088988;27;45401;-79
2021/09/13 02:48:29;;;;;;;;;0.00;0.00;;;;;16.80;59.19;101343.63;5104777;27;45470;-79
2021/09/13 02:50:55;;;;;;;;;6.00;0.00;;;;;16.70;59.49;101329.66;5087773;27;45544;-78
2021/09/13 02:53:20;;;;;;;;;0.00;0.00;;;;;16.77;59.66;101342.75;5106864;27;45406;-78
2021/09/13 02:55:45;;;;;;;;;0.00;0.00;;;;;16.93;58.97;101368.06;5088383;27;45566;-78
2021/09/13 02:58:11;;;;;;;;;0.00;0.00;;;;;16.78;59.76;101334.00;5107322;27;46339;-78
2021/09/13 03:00:36;;;;;;;;;0.00;0.00;;;;;16.65;59.76;101314.81;5087988;27;45753;-79
2021/09/13 03:03:01;;;;;;;;;0.25;0.00;;;;;16.79;59.85;101335.75;5087531;27;45418;-79
2021/09/13 03:05:27;;;;;;;;;0.00;0.00;;;;;16.80;59.99;101329.59;5086691;27;45449;-79
2021/09/13 03:07:52;;;;;;;;;0.00;0.00;;;;;16.89;60.00;101337.44;5085545;27;47271;-79
2021/09/13 03:10:17;;;;;;;;;0.00;0.00;;;;;16.82;59.97;101312.91;5105032;27;45283;-79
2021/09/13 03:12:43;;;;;;;;;0.00;0.00;;;;;16.80;60.03;101309.44;5105965;27;45187;-79
2021/09/13 03:15:09;;;;;;;;;0.00;0.00;;;;;16.75;59.82;101305.13;5105085;27;45216;-80
2021/09/13 03:17:35;;;;;;;;;0.00;0.00;;;;;16.96;59.92;101336.47;5074509;27;48308;-79
2021/09/13 03:20:01;;;;;;;;;0.00;0.00;;;;;17.01;60.08;101344.34;5117906;27;45411;-81
2021/09/13 03:22:27;;;;;;;;;0.00;0.00;;;;;17.04;59.44;101349.56;5100177;27;45200;-80
2021/09/13 03:24:52;;;;;;;;;0.00;0.00;;;;;16.68;59.51;101286.75;5096711;27;45529;-80
2021/09/13 03:27:17;;;;;;;;;0.00;0.00;;;;;16.80;59.51;101293.69;5089352;27;47389;-78
2021/09/13 03:29:43;;;;;;;;;0.25;0.25;;;;;17.09;60.07;101339.06;5085227;27;45786;-79
2021/09/13 03:32:08;;;;;;;;;0.75;0.00;;;;;17.07;59.98;101327.66;5107334;27;45601;-80
2021/09/13 03:34:33;;;;;;;;;0.00;0.00;;;;;17.20;59.44;101345.06;5111338;27;45363;-79
2021/09/13 03:36:59;;;;;;;;;0.00;0.00;;;;;17.07;59.76;101311.88;5116327;27;45351;-78
2021/09/13 03:39:25;;;;;;;;;0.00;0.00;;;;;17.19;59.51;101330.19;5112268;27;45356;-79
2021/09/13 03:41:51;;;;;;;;;0.00;0.00;;;;;17.18;59.21;101336.31;5114621;27;45351;-78
2021/09/13 03:44:16;;;;;;;;;0.00;0.00;;;;;16.89;59.60;101290.09;5114126;27;45258;-79
2021/09/13 03:46:42;;;;;;;;;0.00;0.00;;;;;16.83;59.45;101280.50;5112431;27;46443;-79
2021/09/13 03:49:07;;;;;;;;;0.00;0.00;;;;;16.71;59.95;101270.97;5093657;27;44709;-78
2021/09/13 03:51:34;;;;;;;;;0.00;0.00;;;;;16.88;60.19;101295.38;5114901;27;45380;-79
2021/09/13 03:54:01;;;;;;;;;0.00;0.00;;;;;16.81;59.91;101289.28;5100329;27;45184;-78
2021/09/13 03:56:26;;;;;;;;;0.00;0.00;;;;;16.90;60.45;101317.25;5118270;27;46085;-78
2021/09/13 03:58:51;;;;;;;;;0.00;0.00;;;;;16.82;60.77;101310.28;5112812;27;45345;-79
2021/09/13 04:01:17;;;;;;;;;0.00;0.00;;;;;16.75;60.04;101292.81;5094687;27;45442;-79
2021/09/13 04:03:46;;;;;;;;;0.00;0.00;;;;;17.03;59.98;101339.06;5115270;27;45410;-79
2021/09/13 04:06:24;;;;;;;;;0.00;0.00;;;;;16.62;60.52;101271.03;5114822;27;45490;-79
2021/09/13 04:11:26;;;;;;;;;0.00;0.00;;;;;17.06;60.15;101337.28;5116090;27;45471;-78
2021/09/13 04:13:52;;;;;;;;;0.00;0.00;;;;;16.88;60.67;101298.88;5112965;27;45550;-78
2021/09/13 04:16:17;;;;;;;;;0.00;0.00;;;;;16.93;60.13;101296.19;5094942;27;47639;-79
2021/09/13 04:18:43;;;;;;;;;0.00;0.00;;;;;17.06;60.39;101323.25;5088938;27;45480;-79
2021/09/13 04:21:08;;;;;;;;;0.00;0.00;;;;;17.07;60.60;101312.75;5092621;27;45846;-79
2021/09/13 04:23:33;;;;;;;;;0.00;0.00;;;;;16.84;60.17;101274.34;5091670;27;45599;-79
2021/09/13 04:25:59;;;;;;;;;1.00;0.00;;;;;17.10;60.07;101323.22;5109364;27;46003;-79
2021/09/13 04:28:24;;;;;;;;;0.00;0.00;;;;;16.96;60.62;101307.56;5113010;27;45305;-78
2021/09/13 04:30:49;;;;;;;;;0.00;0.00;;;;;16.86;60.69;101292.75;5088502;27;45636;-78
2021/09/13 04:33:15;;;;;;;;;0.00;0.00;;;;;16.91;60.85;101290.09;5106472;27;45451;-78
2021/09/13 04:35:40;;;;;;;;;0.75;0.75;;;;;16.97;60.49;101304.03;5097027;27;45478;-77
2021/09/13 04:38:05;;;;;;;;;0.00;0.00;;;;;17.10;60.43;101312.69;5114883;27;45341;-77
2021/09/13 04:40:31;;;;;;;;;0.00;0.00;;;;;17.11;60.38;101318.84;5113837;27;45300;-77
2021/09/13 04:42:56;;;;;;;;;0.00;0.00;;;;;16.99;60.33;101293.50;5114565;27;45305;-77
2021/09/13 04:45:21;;;;;;;;;0.00;0.00;;;;;17.07;60.93;101315.38;5107203;27;47378;-77
2021/09/13 04:47:47;;;;;;;;;0.75;0.00;;;;;16.88;60.77;101282.22;5109987;27;45241;-78
2021/09/13 04:50:12;;;;;;;;;0.00;0.00;;;;;17.01;60.46;101312.78;5105070;27;45344;-80
2021/09/13 04:52:37;;;;;;;;;0.00;0.00;;;;;17.00;60.53;101307.53;5098158;27;45505;-78
2021/09/13 04:55:03;;;;;;;;;0.00;0.00;;;;;16.76;60.65;101272.69;5106636;27;46391;-78
2021/09/13 04:57:28;;;;;;;;;0.50;0.50;;;;;16.91;61.05;101321.63;5106599;27;45198;-79
2021/09/13 04:59:54;;;;;;;;;0.00;0.00;;;;;16.38;61.55;101230.94;5102381;27;45228;-79
2021/09/13 05:02:19;;;;;;;;;0.00;0.00;;;;;16.63;61.50;101256.16;5114054;27;45219;-79
2021/09/13 05:04:44;;;;;;;;;0.00;0.00;;;;;17.00;61.13;101324.16;5114453;27;45547;-80
2021/09/13 05:07:10;;;;;;;;;0.00;0.00;;;;;16.97;61.15;101319.81;5092699;27;45241;-81
2021/09/13 05:09:35;;;;;;;;;2.00;1.00;;;;;17.01;61.34;101314.53;5093118;27;45330;-82
2021/09/13 05:12:01;;;;;;;;;0.00;0.00;;;;;16.60;61.40;101251.75;5111464;27;45251;-80
2021/09/13 05:14:26;;;;;;;;;0.00;0.00;;;;;16.77;61.29;101277.03;5106597;27;46204;-83
2021/09/13 05:16:52;;;;;;;;;0.00;0.00;;;;;16.93;61.62;101297.06;5104826;27;45338;-81
2021/09/13 05:19:18;;;;;;;;;0.00;0.00;;;;;16.95;61.38;101295.31;5103974;27;45369;-82
2021/09/13 05:21:43;;;;;;;;;0.00;0.00;;;;;16.67;61.22;101249.97;5088530;27;45224;-86
2021/09/13 05:24:09;;;;;;;;;0.00;0.00;;;;;17.04;61.36;101309.25;5083949;27;46842;-82
2021/09/13 05:26:34;;;;;;;;;0.25;0.25;;;;;16.91;61.52;101293.56;5104400;27;45484;-82
2021/09/13 05:28:59;;;;;;;;;0.00;0.00;;;;;16.71;61.84;101263.09;5104198;27;45463;-85
2021/09/13 05:31:25;;;;;;;;;1.25;0.50;;;;;16.72;61.43;101259.56;5089832;27;45485;-82
2021/09/13 05:33:50;;;;;;;;;2.00;2.00;;;;;17.09;61.14;101318.00;5104003;27;46392;-81
2021/09/13 05:36:16;;;;;;;;;0.00;0.00;;;;;16.97;61.61;101301.41;5105910;27;45516;-87
2021/09/13 05:38:42;;;;;;;;;0.00;0.00;;;;;16.68;61.32;101257.84;5087002;27;45405;-85
2021/09/13 05:41:07;;;;;;;;;0.00;0.00;;;;;17.00;61.28;101311.00;5083410;27;45442;-83
2021/09/13 05:43:33;;;;;;;;;0.00;0.00;;;;;16.83;61.64;101291.03;5101171;27;46152;-82
2021/09/13 05:45:59;;;;;;;;;0.50;0.50;;;;;16.96;61.58;101304.94;5094391;27;45198;-82
2021/09/13 05:48:24;;;;;;;;;0.00;0.00;;;;;16.96;62.05;101304.03;5110756;27;45436;-83
2021/09/13 05:50:50;;;;;;;;;0.00;0.00;;;;;16.52;61.60;101240.47;5123454;27;44719;-83
2021/09/13 05:53:16;;;;;;;;;0.00;0.00;;;;;16.77;61.93;101282.31;5105533;27;47331;-82
2021/09/13 05:55:42;;;;;;;;;2.00;1.50;;;;;16.74;62.36;101290.22;5104432;27;44868;-82
2021/09/13 05:58:12;;;;;;;;;0.00;0.00;;;;;16.32;62.19;101236.22;5101427;27;45360;-83
2021/09/13 06:00:38;;;;;;;;;0.00;0.00;;;;;16.57;62.53;101264.97;5118631;27;45210;-81
2021/09/13 06:03:05;;;;;;;;;0.00;0.00;;;;;16.65;62.35;101285.91;5121468;27;45357;-81
2021/09/13 06:05:31;;;;;;;;;0.00;0.00;;;;;16.66;62.35;101288.53;5120041;27;45091;-81
2021/09/13 06:07:57;;;;;;;;;1.00;0.00;;;;;16.78;62.47;101307.72;5114120;27;45386;-80
2021/09/13 06:10:22;;;;;;;;;0.00;0.00;;;;;16.50;62.13;101261.50;5109955;27;45274;-82
2021/09/13 06:12:47;;;;;;;;;0.75;0.00;;;;;16.82;62.09;101309.44;5103870;27;45455;-79
2021/09/13 06:15:13;;;;;;;;;0.25;0.25;;;;;16.45;62.57;101263.28;5113744;27;45196;-78
2021/09/13 06:17:38;;;;;;;;;0.00;0.00;;;;;16.63;62.36;101293.78;5110349;27;45723;-77
2021/09/13 06:20:04;;;;;;;;;0.00;0.00;;;;;16.75;62.70;101305.13;5117989;27;45458;-80
2021/09/13 06:22:31;;;;;;;;;0.00;0.00;;;;;16.82;62.80;101318.19;5095025;27;47292;-80
2021/09/13 06:24:56;;;;;;;;;1.00;1.00;;;;;16.86;62.72;101316.41;5100321;27;45418;-81
2021/09/13 06:27:22;;;;;;;;;0.00;0.00;;;;;16.84;62.59;101318.16;5091826;27;45409;-82
2021/09/13 06:29:47;;;;;;;;;0.75;0.75;;;;;16.70;62.43;101292.84;5108771;27;45418;-82
2021/09/13 06:32:13;;;;;;;;;1.00;1.00;;;;;16.71;62.43;101289.38;5092251;27;47399;-83
2021/09/13 06:34:38;;;;;;;;;0.50;0.50;;;;;16.83;63.04;101304.16;5089627;27;45263;-82
2021/09/13 06:37:03;;;;;;;;;1.00;1.00;;;;;16.46;62.39;101228.25;5087609;27;45445;-81
2021/09/13 06:39:29;;;;;;;;;1.00;1.00;;;;;17.09;62.78;101321.50;5110872;27;45193;-82
2021/09/13 06:41:54;;;;;;;;;0.25;0.25;;;;;17.19;62.31;101327.56;5105177;27;45459;-81
2021/09/13 06:44:23;;;;;;;;;0.00;0.00;;;;;17.20;61.96;101324.03;5087923;27;45176;-82
2021/09/13 06:47:01;;;;;;;;;1.00;1.00;;;;;17.19;62.30;101334.56;5105439;27;45317;-80
2021/09/13 06:49:27;;;;;;;;;0.00;0.00;;;;;17.19;62.29;101332.81;5112987;27;45294;-79
2021/09/13 06:51:52;;;;;;;;;0.00;0.00;;;;;17.16;62.14;101327.59;5089405;27;47293;-80
2021/09/13 06:54:17;;;;;;;;;0.00;0.00;;;;;17.14;62.37;101326.72;5107587;27;45451;-81
2021/09/13 06:56:44;;;;;;;;;0.00;0.00;;;;;17.04;62.71;101317.13;5106779;27;45229;-83
2021/09/13 06:59:12;;;;;;;;;1.00;1.00;;;;;16.85;62.41;101283.97;5119678;27;45492;-81
2021/09/13 07:01:40;;;;;;;;;0.75;0.75;;;;;17.24;62.29;101356.44;5107904;27;45323;-81
2021/09/13 07:04:06;;;;;;;;;0.25;0.25;;;;;17.09;61.84;101310.13;5108694;27;45466;-85
2021/09/13 07:06:32;;;;;;;;;1.00;1.00;;;;;17.23;62.35;101328.38;5104338;27;45495;-81
2021/09/13 07:08:57;;;;;;;;;1.00;1.00;;;;;17.13;61.88;101296.03;5121114;27;45508;-80
2021/09/13 07:11:24;;;;;;;;;1.00;1.00;;;;;17.43;62.08;101332.59;5091226;27;45479;-80
2021/09/13 07:13:50;;;;;;;;;0.00;0.00;;;;;17.56;61.69;101338.56;5104020;27;45483;-82
2021/09/13 07:16:15;;;;;;;;;1.00;1.00;;;;;17.42;61.49;101294.84;5099295;27;45211;-81
2021/09/13 07:18:41;;;;;;;;;2.00;0.00;;;;;17.71;61.51;101327.00;5079876;27;45569;-81
2021/09/13 07:21:06;;;;;;;;;0.00;0.00;;;;;17.80;61.18;101331.28;5076080;27;47439;-82
2021/09/13 07:23:32;;;;;;;;;0.00;0.00;;;;;17.86;61.41;101326.81;5098346;27;45349;-81
2021/09/13 07:25:58;;;;;;;;;0.00;0.00;;;;;17.85;61.23;101303.13;5088164;27;45616;-80
2021/09/13 07:28:23;;;;;;;;;0.00;0.00;;;;;18.08;60.96;101336.19;5104104;27;45370;-82
2021/09/13 07:30:49;;;;;;;;;1.00;0.00;;;;;17.86;61.09;101271.50;5101250;27;45930;-82
2021/09/13 07:33:14;;;;;;;;;3.00;1.50;;;;;17.96;60.44;101279.28;5104056;27;45445;-83
2021/09/13 07:35:39;;;;;;;;;2.00;0.00;;;;;18.21;60.68;101315.84;5120900;27;45513;-84
2021/09/13 07:38:05;;;;;;;;;0.00;0.00;;;;;18.17;60.37;101285.19;5106537;27;44986;-81
2021/09/13 07:40:30;;;;;;;;;1.25;1.00;;;;;18.51;60.32;101323.31;5102280;27;47097;-83
2021/09/13 07:42:56;;;;;;;;;0.00;0.00;;;;;18.44;59.96;101304.13;5099718;27;45519;-82
2021/09/13 07:45:22;;;;;;;;;0.25;0.25;;;;;18.59;59.72;101313.56;5082776;27;45544;-83
2021/09/13 07:47:48;;;;;;;;;0.00;0.00;;;;;18.58;60.08;101307.41;5090727;27;45469;-82
2021/09/13 07:50:13;;;;;;;;;0.25;0.00;;;;;18.27;59.81;101244.63;5087081;27;45573;-82
2021/09/13 07:52:39;;;;;;;;;0.50;0.50;;;;;18.73;59.70;101314.19;5087780;27;45491;-81
2021/09/13 07:55:04;;;;;;;;;0.00;0.00;;;;;18.64;59.28;101290.59;5087409;27;45334;-81
2021/09/13 07:57:30;;;;;;;;;1.50;0.00;;;;;18.91;59.37;101320.06;5093864;27;46879;-81
2021/09/13 07:59:55;;;;;;;;;0.00;0.00;;;;;18.87;59.21;101287.56;5091264;27;45516;-82
2021/09/13 08:02:21;;;;;;;;;0.75;0.75;;;;;18.90;58.98;101267.31;5086800;27;45351;-83
2021/09/13 08:04:46;;;;;;;;;1.00;1.00;;;;;18.99;58.77;101283.00;5091555;27;45435;-83
2021/09/13 08:07:12;;;;;;;;;1.00;0.75;;;;;18.84;58.28;101234.03;5091364;28;45211;-83
2021/09/13 08:09:37;;;;;;;;;2.00;0.00;;;;;18.87;58.47;101234.81;5094566;27;46163;-83
2021/09/13 08:12:02;;;;;;;;;2.00;0.00;;;;;19.41;58.46;101298.06;5080422;27;45598;-81
2021/09/13 08:14:28;;;;;;;;;1.00;0.50;;;;;19.48;58.01;101296.19;5086276;27;45391;-79
2021/09/13 08:16:53;;;;;;;;;0.00;0.00;;;;;19.50;57.83;101279.41;5088221;27;45527;-78
2021/09/13 08:19:18;;;;;;;;;0.00;0.00;;;;;19.52;57.76;101270.59;5102530;27;46079;-78
2021/09/13 08:21:45;;;;;;;;;0.50;0.50;;;;;19.65;57.64;101287.03;5073215;27;45315;-81
2021/09/13 08:24:11;;;;;;;;;0.00;0.00;;;;;19.50;57.62;101252.13;5088257;27;45701;-84
2021/09/13 08:26:37;;;;;;;;;1.25;1.25;;;;;19.57;56.96;101252.88;5086684;27;45464;-78
2021/09/13 08:29:02;;;;;;;;;1.00;0.00;;;;;19.57;57.08;101242.31;5079407;27;45550;-80
2021/09/13 08:31:28;;;;;;;;;0.00;0.00;;;;;20.03;56.96;101303.88;5091358;27;45378;-83
2021/09/13 08:33:54;;;;;;;;;1.25;1.25;;;;;19.88;56.58;101250.44;5083767;27;45315;-80
2021/09/13 08:36:19;;;;;;;;;1.25;1.25;;;;;20.06;56.69;101245.66;5095488;27;45634;-78
2021/09/13 08:38:45;;;;;;;;;0.00;0.00;;;;;20.00;56.06;101222.03;5079230;27;45520;-80
2021/09/13 08:41:10;;;;;;;;;0.00;0.00;;;;;20.11;56.38;101232.34;5078564;27;45447;-80
2021/09/13 08:43:36;;;;;;;;;0.00;0.00;;;;;20.48;56.25;101294.91;5089381;27;45857;-84
2021/09/13 08:46:18;;;;;;;;;0.00;0.00;;;;;20.38;55.83;101289.00;5081279;27;45349;-81
2021/09/13 08:53:40;;;;;;;;;0.00;0.00;;;;;20.33;56.03;101279.41;5083419;27;45438;-82
2021/09/13 08:56:08;;;;;;;;;0.00;0.00;;;;;20.41;55.54;101301.25;5067474;28;45542;-80
2021/09/13 08:58:35;;;;;;;;;1.75;0.75;;;;;20.17;55.77;101269.22;5087559;27;47632;-81
2021/09/13 09:01:00;;;;;;;;;0.00;0.00;;;;;20.44;55.64;101300.31;5084035;27;45358;-80
2021/09/13 09:03:27;;;;;;;;;0.00;0.00;;;;;20.22;55.67;101250.59;5081932;27;45403;-82
2021/09/13 09:05:53;;;;;;;;;0.00;0.00;;;;;20.44;55.13;101265.94;5098207;27;45508;-82
2021/09/13 09:08:33;;;;;;;;;0.00;0.00;;;;;20.73;55.01;101309.28;5087367;27;45518;-80
2021/09/13 09:11:06;;;;;;;;;0.00;0.00;;;;;20.83;54.89;101310.81;5085541;28;45325;-80
2021/09/13 09:13:43;;;;;;;;;0.00;0.00;;;;;20.85;54.80;101286.94;5084605;27;45331;-80
2021/09/13 09:16:13;;;;;;;;;0.00;0.00;;;;;20.94;54.23;101297.34;5094994;28;45312;-80
2021/09/13 09:18:48;;;;;;;;;0.00;0.00;;;;;21.14;54.48;101311.84;5100028;27;46467;-80
2021/09/13 09:21:29;;;;;;;;;0.00;0.00;;;;;21.11;53.94;101301.31;5075340;28;44749;-83
2021/09/13 09:24:00;;;;;;;;;0.25;0.25;;;;;21.22;53.44;101306.34;5085832;27;45451;-82
2021/09/13 09:26:27;;;;;;;;;0.75;0.00;;;;;21.43;53.63;101312.81;5082236;27;45479;-78
2021/09/13 09:28:56;;;;;;;;;0.00;0.00;;;;;21.38;52.90;101275.00;5064112;28;47550;-83
2021/09/13 09:31:43;;;;;;;;;0.00;0.00;;;;;21.71;52.64;101304.06;5084675;27;45588;-81
2021/09/13 09:34:14;;;;;;;;;0.00;0.00;;;;;21.87;52.71;101303.66;5084171;27;45557;-80
2021/09/13 09:36:40;;;;;;;;;0.00;0.00;;;;;21.89;52.52;101280.59;5080470;27;45515;-80
2021/09/13 09:39:12;;;;;;;;;0.00;0.00;;;;;21.87;51.49;101269.22;5070592;27;45977;-81
2021/09/13 09:41:43;;;;;;;;;0.00;0.00;;;;;22.11;51.64;101293.22;5065209;28;45677;-82
2021/09/13 09:44:08;;;;;;;;;0.00;0.00;;;;;22.00;50.95;101270.56;5077307;28;45536;-83
2021/09/13 09:46:40;;;;;;;;;0.00;0.00;;;;;22.28;50.54;101296.22;5101401;27;45484;-85
2021/09/13 09:49:17;;;;;;;;;0.00;0.00;;;;;22.18;50.73;101256.75;5089778;27;47338;-84
2021/09/13 09:52:02;;;;;;;;;0.00;0.00;;;;;22.50;49.94;101298.16;5096721;27;45330;-86
2021/09/13 09:54:29;;;;;;;;;0.00;0.00;;;;;22.51;50.50;101280.47;5088116;27;45526;-85
2021/09/13 09:57:08;;;;;;;;;0.50;0.25;;;;;22.55;49.92;101273.25;5088842;27;45504;-85
2021/09/13 09:59:37;;;;;;;;;0.00;0.00;;;;;22.54;50.33;101269.72;5106822;27;45455;-82
2021/09/13 10:02:19;;;;;;;;;0.50;0.50;;;;;22.53;49.13;101274.19;5088649;27;45354;-81
2021/09/13 10:04:49;;;;;;;;;0.75;0.00;;;;;22.62;49.80;101261.53;5103577;27;45358;-82
2021/09/13 10:07:16;;;;;;;;;0.00;0.00;;;;;22.77;49.09;101255.72;5104653;27;45692;-82
2021/09/13 10:09:43;;;;;;;;;0.00;0.00;;;;;22.85;49.47;101250.13;5111768;27;45627;-82
2021/09/13 10:12:10;;;;;;;;;0.00;0.00;;;;;22.99;48.97;101249.66;5108938;27;45230;-85
2021/09/13 10:14:36;;;;;;;;;0.00;0.00;;;;;23.07;48.55;101251.16;5111249;27;45641;-85
2021/09/13 10:17:05;;;;;;;;;0.00;0.00;;;;;23.12;48.56;101235.94;5104332;27;45284;-83
2021/09/13 10:19:31;;;;;;;;;0.00;0.00;;;;;23.07;48.64;101222.84;5108926;27;46203;-83
2021/09/13 10:21:56;;;;;;;;;0.75;0.75;;;;;23.08;48.08;101223.69;5112882;27;45404;-81
2021/09/13 10:24:24;;;;;;;;;1.00;1.00;;;;;23.09;48.22;101214.81;5096892;27;45540;-80
2021/09/13 10:26:52;;;;;;;;;0.00;0.00;;;;;23.27;48.12;101246.00;5103171;27;44860;-84
2021/09/13 10:29:21;;;;;;;;;0.00;0.00;;;;;22.95;48.06;101178.16;5105841;27;47205;-82
2021/09/13 10:31:46;;;;;;;;;0.50;0.50;;;;;23.36;48.23;101233.28;5068145;27;45476;-84
2021/09/13 10:34:19;;;;;;;;;0.50;0.50;;;;;23.33;47.37;101234.28;5115573;27;45309;-87
2021/09/13 10:37:06;;;;;;;;;0.00;0.00;;;;;23.35;47.89;101232.44;5108758;27;45417;-83
2021/09/13 10:39:50;;;;;;;;;0.00;0.00;;;;;23.47;47.36;101222.28;5109651;27;47514;-84
2021/09/13 10:42:32;;;;;;;;;0.00;0.00;;;;;23.11;47.35;101170.47;5104436;27;45560;-86
2021/09/13 10:45:18;;;;;;;;;0.75;0.75;;;;;23.47;47.87;101222.28;5107898;27;45309;-85
2021/09/13 10:47:49;;;;;;;;;0.00;0.00;;;;;23.49;47.14;101228.44;5100005;27;45673;-81
2021/09/13 10:50:35;;;;;;;;;0.00;0.00;;;;;23.57;47.37;101217.47;5103369;27;46231;-80
2021/09/13 10:53:22;;;;;;;;;2.00;0.00;;;;;23.49;47.05;101186.75;5091463;27;45436;-84
2021/09/13 10:55:49;;;;;;;;;0.00;0.00;;;;;23.43;47.30;101172.88;5100946;27;45595;-90
2021/09/13 10:59:14;;;;;;;;;1.00;1.00;;;;;23.67;47.23;101219.72;5092583;27;45429;-83
2021/09/13 11:01:38;;;;;;;;;0.50;0.00;;;;;23.00;47.10;101107.19;5096721;27;45533;-82
2021/09/13 11:04:06;;;;;;;;;0.75;0.75;;;;;23.45;47.16;101160.38;5090362;27;45792;-83
2021/09/13 11:06:54;;;;;;;;;0.00;0.00;;;;;22.47;46.69;100960.53;5089845;27;45505;-82
2021/09/13 11:09:22;;;;;;;;;0.00;0.00;;;;;23.38;46.89;101098.66;5084937;27;45508;-81
2021/09/13 11:12:10;;;;;;;;;0.00;0.00;;;;;23.10;46.17;101031.56;5092114;27;45709;-82
2021/09/13 11:14:41;;;;;;;;;0.00;0.00;;;;;23.45;46.27;101091.31;5084123;27;45844;-82
2021/09/13 11:17:19;;;;;;;;;;;;;;;;;;;;;
2021/09/13 11:19:50;;;;;;;;;0.00;0.00;;;;;24.02;46.18;101191.81;5103482;27;62998;-83
2021/09/13 11:22:22;;;;;;;;;0.00;0.00;;;;;23.06;46.02;101029.94;5095950;27;48508;-86
2021/09/13 11:24:51;;;;;;;;;0.00;0.00;;;;;23.59;46.50;101120.88;5095198;27;45525;-81
2021/09/13 11:27:20;;;;;;;;;0.00;0.00;;;;;23.11;46.04;101038.59;5094244;27;45378;-80
2021/09/13 11:29:58;;;;;;;;;0.25;0.25;;;;;22.67;46.43;100949.19;5089782;27;46440;-80
2021/09/13 11:32:28;;;;;;;;;0.00;0.00;;;;;23.35;46.43;101069.53;5098466;27;46250;-81
2021/09/13 11:35:17;;;;;;;;;0.75;0.75;;;;;23.56;45.77;101107.69;5082955;27;45457;-79